createdAt,value
2023-03-18T00:02:33.862Z,100.00
2023-03-18T00:05:34.823Z,100.00
2023-03-18T00:08:34.844Z,100.00
2023-03-18T00:11:36.826Z,100.00
2023-03-18T00:14:38.980Z,100.00
2023-03-18T00:17:40.897Z,100.00
2023-03-18T00:20:48.359Z,100.00
2023-03-18T00:23:55.939Z,100.00
2023-03-18T00:26:56.990Z,100.00
2023-03-18T00:29:57.908Z,100.00
2023-03-18T00:33:01.488Z,100.00
2023-03-18T00:36:03.063Z,100.00
2023-03-18T00:39:10.157Z,100.00
2023-03-18T00:42:16.942Z,100.00
2023-03-18T00:45:21.471Z,100.00
2023-03-18T00:48:26.729Z,100.00
2023-03-18T00:51:27.913Z,100.00
2023-03-18T00:54:30.961Z,100.00
2023-03-18T00:57:31.454Z,100.00
2023-03-18T01:00:32.178Z,100.00
2023-03-18T01:03:33.973Z,100.00
2023-03-18T01:06:46.934Z,100.00
2023-03-18T01:09:53.985Z,100.00
2023-03-18T01:12:56.070Z,100.00
2023-03-18T01:15:55.992Z,100.00
2023-03-18T01:18:57.966Z,100.00
2023-03-18T01:22:01.188Z,100.00
2023-03-18T01:25:05.960Z,100.00
2023-03-18T01:28:09.057Z,100.00
2023-03-18T01:31:14.075Z,100.00
2023-03-18T01:34:16.044Z,100.00
2023-03-18T01:37:20.076Z,100.00
2023-03-18T01:40:34.999Z,100.00
2023-03-18T01:43:39.411Z,100.00
2023-03-18T01:46:43.053Z,100.00
2023-03-18T01:49:49.981Z,100.00
2023-03-18T01:52:53.014Z,100.00
2023-03-18T01:55:55.410Z,100.00
2023-03-18T01:58:59.015Z,100.00
2023-03-18T02:02:18.272Z,100.00
2023-03-18T02:05:22.128Z,100.00
2023-03-18T02:08:23.011Z,100.00
2023-03-18T02:11:29.408Z,100.00
2023-03-18T02:14:30.291Z,100.00
2023-03-18T02:17:35.152Z,100.00
2023-03-18T02:20:43.170Z,100.00
2023-03-18T02:24:09.114Z,100.00
2023-03-18T02:27:14.255Z,100.00
2023-03-18T02:30:20.194Z,100.00
2023-03-18T02:33:21.128Z,100.00
2023-03-18T02:36:24.111Z,100.00
2023-03-18T02:39:33.999Z,100.00
2023-03-18T02:42:45.093Z,100.00
2023-03-18T02:45:52.135Z,100.00
2023-03-18T02:48:53.201Z,100.00
2023-03-18T02:51:55.223Z,100.00
2023-03-18T02:55:05.473Z,100.00
2023-03-18T02:58:11.098Z,100.00
2023-03-18T03:01:14.439Z,100.00
2023-03-18T03:04:15.354Z,100.00
2023-03-18T03:07:21.272Z,100.00
2023-03-18T03:10:24.640Z,100.00
2023-03-18T03:13:25.298Z,100.00
2023-03-18T03:16:27.487Z,100.00
2023-03-18T03:19:28.176Z,100.00
2023-03-18T03:22:32.235Z,100.00
2023-03-18T03:25:34.509Z,100.00
2023-03-18T03:28:36.203Z,100.00
2023-03-18T03:31:39.149Z,100.00
2023-03-18T03:34:41.184Z,100.00
2023-03-18T03:37:41.204Z,100.00
2023-03-18T03:40:45.434Z,100.00
2023-03-18T03:43:45.278Z,100.00
2023-03-18T03:46:46.561Z,100.00
2023-03-18T03:49:49.187Z,100.00
2023-03-18T03:52:50.227Z,100.00
2023-03-18T03:55:53.280Z,100.00
2023-03-18T03:58:54.194Z,100.00
2023-03-18T04:02:07.331Z,100.00
2023-03-18T04:05:09.296Z,100.00
2023-03-18T04:08:11.210Z,100.00
2023-03-18T04:11:13.291Z,100.00
2023-03-18T04:14:15.218Z,100.00
2023-03-18T04:17:25.719Z,100.00
2023-03-18T04:20:27.400Z,100.00
2023-03-18T04:23:28.340Z,100.00
2023-03-18T04:26:32.819Z,100.00
2023-03-18T04:29:38.881Z,100.00
2023-03-18T04:32:40.415Z,100.00
2023-03-18T04:35:44.518Z,100.00
2023-03-18T04:38:45.286Z,100.00
2023-03-18T04:41:50.385Z,100.00
2023-03-18T04:44:53.670Z,100.00
2023-03-18T04:47:58.330Z,100.00
2023-03-18T04:51:02.364Z,100.00
2023-03-18T04:54:09.319Z,100.00
2023-03-18T04:57:12.334Z,100.00
2023-03-18T05:00:27.958Z,100.00
2023-03-18T05:03:40.336Z,100.00
2023-03-18T05:06:44.369Z,100.00
2023-03-18T05:09:48.364Z,100.00
2023-03-18T05:12:54.334Z,100.00
2023-03-18T05:15:59.396Z,100.00
2023-03-18T05:18:59.396Z,100.00
2023-03-18T05:22:02.539Z,100.00
2023-03-18T05:25:03.463Z,100.00
2023-03-18T05:28:06.716Z,100.00
2023-03-18T05:31:12.556Z,100.00
2023-03-18T05:34:16.852Z,100.00
2023-03-18T05:37:19.803Z,100.00
2023-03-18T05:40:28.797Z,100.00
2023-03-18T05:43:36.066Z,100.00
2023-03-18T05:46:44.375Z,100.00
2023-03-18T05:49:54.699Z,100.00
2023-03-18T05:52:55.435Z,99.90
2023-03-18T05:56:02.447Z,99.70
2023-03-18T05:59:03.582Z,99.59
2023-03-18T06:02:14.571Z,99.27
2023-03-18T06:05:14.404Z,98.96
2023-03-18T06:08:18.329Z,98.71
2023-03-18T06:11:25.792Z,97.86
2023-03-18T06:14:35.468Z,97.51
2023-03-18T06:17:48.777Z,97.66
2023-03-18T06:20:51.476Z,97.32
2023-03-18T06:24:09.714Z,97.04
2023-03-18T06:27:11.875Z,96.66
2023-03-18T06:30:23.950Z,97.23
2023-03-18T06:33:27.491Z,97.36
2023-03-18T06:36:36.488Z,97.79
2023-03-18T06:39:44.330Z,98.09
2023-03-18T06:42:48.613Z,98.10
2023-03-18T06:46:05.584Z,97.71
2023-03-18T06:49:12.146Z,97.66
2023-03-18T06:52:20.585Z,97.64
2023-03-18T06:55:35.183Z,97.66
2023-03-18T06:58:39.169Z,97.93
2023-03-18T07:01:40.603Z,97.93
2023-03-18T07:04:47.055Z,97.73
2023-03-18T07:07:50.876Z,97.41
2023-03-18T07:10:57.068Z,97.20
2023-03-18T07:13:59.565Z,96.75
2023-03-18T07:17:04.637Z,96.73
2023-03-18T07:20:13.109Z,96.94
2023-03-18T07:23:14.611Z,97.15
2023-03-18T07:26:19.911Z,97.37
2023-03-18T07:29:20.262Z,97.49
2023-03-18T07:32:20.607Z,97.41
2023-03-18T07:35:31.602Z,96.85
2023-03-18T07:38:36.103Z,96.53
2023-03-18T07:41:38.861Z,96.35
2023-03-18T07:44:46.645Z,95.95
2023-03-18T07:47:48.684Z,95.29
2023-03-18T07:50:52.113Z,94.44
2023-03-18T07:53:52.852Z,93.58
2023-03-18T07:56:53.862Z,93.53
2023-03-18T07:59:57.703Z,93.07
2023-03-18T08:03:24.867Z,92.97
2023-03-18T08:06:39.740Z,92.74
2023-03-18T08:09:40.873Z,92.56
2023-03-18T08:12:52.552Z,92.51
2023-03-18T08:15:56.026Z,92.30
2023-03-18T08:18:59.718Z,91.25
2023-03-18T08:22:03.745Z,90.23
2023-03-18T08:25:09.686Z,90.44
2023-03-18T08:28:13.694Z,90.32
2023-03-18T08:31:24.596Z,89.98
2023-03-18T08:34:28.050Z,89.93
2023-03-18T08:37:33.297Z,89.80
2023-03-18T08:40:42.024Z,90.07
2023-03-18T08:43:41.746Z,89.88
2023-03-18T08:46:45.697Z,89.67
2023-03-18T08:49:46.127Z,89.28
2023-03-18T08:52:55.112Z,88.38
2023-03-18T08:55:56.841Z,88.07
2023-03-18T08:59:04.418Z,87.90
2023-03-18T09:02:10.078Z,86.74
2023-03-18T09:05:11.935Z,86.16
2023-03-18T09:08:13.949Z,85.31
2023-03-18T09:11:16.019Z,85.13
2023-03-18T09:14:18.256Z,84.71
2023-03-18T09:17:43.828Z,85.07
2023-03-18T09:20:53.481Z,84.60
2023-03-18T09:24:00.938Z,85.25
2023-03-18T09:27:11.581Z,85.61
2023-03-18T09:30:16.910Z,85.34
2023-03-18T09:33:19.996Z,85.37
2023-03-18T09:36:25.179Z,85.98
2023-03-18T09:39:26.897Z,86.24
2023-03-18T09:42:37.569Z,85.95
2023-03-18T09:45:44.915Z,85.57
2023-03-18T09:49:02.183Z,85.66
2023-03-18T09:52:10.952Z,85.75
2023-03-18T09:55:15.853Z,85.91
2023-03-18T09:58:29.798Z,85.74
2023-03-18T10:01:29.849Z,85.47
2023-03-18T10:04:36.532Z,85.56
2023-03-18T10:07:55.488Z,85.27
2023-03-18T10:11:01.459Z,84.89
2023-03-18T10:14:09.835Z,85.11
2023-03-18T10:17:31.179Z,85.18
2023-03-18T10:20:45.031Z,85.12
2023-03-18T10:23:59.837Z,84.84
2023-03-18T10:27:15.887Z,84.19
2023-03-18T10:30:49.467Z,83.66
2023-03-18T10:34:00.024Z,82.87
2023-03-18T10:37:22.267Z,83.06
2023-03-18T10:40:27.619Z,82.96
2023-03-18T10:43:34.156Z,82.57
2023-03-18T10:50:49.343Z,81.59
2023-03-18T10:54:32.831Z,81.69
2023-03-18T10:57:43.328Z,81.00
2023-03-18T11:00:47.198Z,79.51
2023-03-18T11:03:52.020Z,79.97
2023-03-18T11:07:02.775Z,79.52
2023-03-18T11:10:25.338Z,79.97
2023-03-18T11:13:36.000Z,79.63
2023-03-18T11:17:05.475Z,79.60
2023-03-18T11:20:14.189Z,79.15
2023-03-18T11:23:14.019Z,79.30
2023-03-18T11:26:21.007Z,78.93
2023-03-18T11:29:45.626Z,78.31
2023-03-18T11:32:48.779Z,76.88
2023-03-18T11:36:10.107Z,76.32
2023-03-18T11:39:37.629Z,76.30
2023-03-18T11:42:38.976Z,75.75
2023-03-18T11:45:42.272Z,75.24
2023-03-18T11:49:00.364Z,74.57
2023-03-18T11:52:15.526Z,73.24
2023-03-18T11:55:24.216Z,72.27
2023-03-18T11:58:47.932Z,69.34
2023-03-18T12:01:52.579Z,69.71
2023-03-18T12:05:23.542Z,68.36
2023-03-18T12:08:50.632Z,62.40
2023-03-18T12:12:11.173Z,59.28
2023-03-18T12:15:36.055Z,55.25
2023-03-18T12:19:16.978Z,52.23
2023-03-18T12:22:21.272Z,50.14
2023-03-18T12:25:44.274Z,47.92
2023-03-18T12:29:03.337Z,46.54
2023-03-18T12:32:24.934Z,46.65
2023-03-18T12:35:57.813Z,45.64
2023-03-18T12:39:21.128Z,43.94
2023-03-18T12:42:28.888Z,43.34
2023-03-18T12:45:47.199Z,42.88
2023-03-18T12:52:32.250Z,41.36
2023-03-18T12:56:04.024Z,41.85
2023-03-18T12:59:53.067Z,42.60
2023-03-18T13:03:00.212Z,42.64
2023-03-18T13:06:06.172Z,43.12
2023-03-18T13:09:41.698Z,43.68
2023-03-18T13:16:08.564Z,44.29
2023-03-18T13:19:16.747Z,44.85
2023-03-18T13:22:43.881Z,45.93
2023-03-18T13:26:01.299Z,47.04
2023-03-18T13:29:20.909Z,47.75
2023-03-18T13:36:24.462Z,47.98
2023-03-18T13:39:33.428Z,48.22
2023-03-18T13:42:39.182Z,48.96
2023-03-18T13:45:47.083Z,48.93
2023-03-18T13:48:50.799Z,48.68
2023-03-18T13:51:52.930Z,47.71
2023-03-18T13:54:54.227Z,47.63
2023-03-18T13:58:07.603Z,47.56
2023-03-18T14:05:03.470Z,48.79
2023-03-18T14:08:26.506Z,49.10
2023-03-18T14:11:53.013Z,49.90
2023-03-18T14:15:34.999Z,50.64
2023-03-18T14:18:45.916Z,51.28
2023-03-18T14:37:06.349Z,52.90
2023-03-18T14:40:50.290Z,53.18
2023-03-18T14:44:48.005Z,53.64
2023-03-18T14:48:04.811Z,54.06
2023-03-18T14:54:57.795Z,54.78
2023-03-18T14:58:14.955Z,55.16
2023-03-18T15:01:44.697Z,55.43
2023-03-18T15:05:14.556Z,55.88
2023-03-18T15:08:26.350Z,56.16
2023-03-18T15:11:45.210Z,56.54
2023-03-18T15:15:00.236Z,56.89
2023-03-18T15:18:11.482Z,57.19
2023-03-18T15:21:31.034Z,57.57
2023-03-18T15:24:37.181Z,58.08
2023-03-18T15:27:43.477Z,58.48
2023-03-18T15:30:49.072Z,59.17
2023-03-18T15:34:08.824Z,59.84
2023-03-18T15:37:35.741Z,60.27
2023-03-18T15:40:59.595Z,60.80
2023-03-18T15:44:02.450Z,60.96
2023-03-18T15:47:09.688Z,61.22
2023-03-18T15:50:43.965Z,61.32
2023-03-18T15:54:07.831Z,61.66
2023-03-18T15:57:25.521Z,62.39
2023-03-18T16:00:44.761Z,62.92
2023-03-18T16:03:48.131Z,63.53
2023-03-18T16:06:52.639Z,64.27
2023-03-18T16:10:02.363Z,64.77
2023-03-18T16:13:18.702Z,65.45
2023-03-18T16:16:22.900Z,65.83
2023-03-18T16:19:41.701Z,66.25
2023-03-18T16:22:44.956Z,66.83
2023-03-18T16:25:49.535Z,67.32
2023-03-18T16:28:56.189Z,68.10
2023-03-18T16:32:03.552Z,68.82
2023-03-18T16:35:03.628Z,69.12
2023-03-18T16:38:18.988Z,69.14
2023-03-18T16:41:26.812Z,69.45
2023-03-18T16:44:42.590Z,69.70
2023-03-18T16:47:45.942Z,69.89
2023-03-18T16:50:53.719Z,70.04
2023-03-18T16:53:54.854Z,70.13
2023-03-18T16:57:00.756Z,70.52
2023-03-18T17:00:06.676Z,70.60
2023-03-18T17:03:07.679Z,70.73
2023-03-18T17:06:08.725Z,71.54
2023-03-18T17:09:10.691Z,72.60
2023-03-18T17:12:13.856Z,73.89
2023-03-18T17:15:18.840Z,75.25
2023-03-18T17:18:25.648Z,76.31
2023-03-18T17:21:36.067Z,77.30
2023-03-18T17:24:49.689Z,78.17
2023-03-18T17:27:56.633Z,79.20
2023-03-18T17:31:03.273Z,80.15
2023-03-18T17:34:16.194Z,80.92
2023-03-18T17:37:36.599Z,81.71
2023-03-18T17:40:43.597Z,82.25
2023-03-18T17:44:09.615Z,82.80
2023-03-18T17:47:15.266Z,83.43
2023-03-18T17:50:31.905Z,84.21
2023-03-18T17:53:43.522Z,84.70
2023-03-18T17:56:46.748Z,85.18
2023-03-18T17:59:49.402Z,85.56
2023-03-18T18:03:07.757Z,85.76
2023-03-18T18:06:10.850Z,85.99
2023-03-18T18:09:12.256Z,86.60
2023-03-18T18:12:40.822Z,87.29
2023-03-18T18:15:49.199Z,87.93
2023-03-18T18:22:32.787Z,89.19
2023-03-18T18:25:43.623Z,89.97
2023-03-18T18:28:45.696Z,90.24
2023-03-18T18:31:54.768Z,91.08
2023-03-18T18:35:25.775Z,91.55
2023-03-18T18:38:27.822Z,92.21
2023-03-18T18:41:34.928Z,93.49
2023-03-18T18:44:39.763Z,93.98
2023-03-18T18:47:44.860Z,94.28
2023-03-18T18:50:49.356Z,95.11
2023-03-18T18:54:04.309Z,95.50
2023-03-18T19:00:43.212Z,96.19
2023-03-18T19:03:51.070Z,96.36
2023-03-18T19:06:52.694Z,96.78
2023-03-18T19:10:02.543Z,97.04
2023-03-18T19:13:07.339Z,98.01
2023-03-18T19:16:19.484Z,98.53
2023-03-18T19:19:25.064Z,99.10
2023-03-18T19:22:37.802Z,99.65
2023-03-18T19:25:41.087Z,99.78
2023-03-18T19:28:58.815Z,100.00
2023-03-18T19:32:00.991Z,100.00
2023-03-18T19:35:05.625Z,100.00
2023-03-18T19:38:17.151Z,100.00
2023-03-18T19:41:23.890Z,100.00
2023-03-18T19:44:30.901Z,100.00
2023-03-18T19:47:39.830Z,100.00
2023-03-18T19:50:40.002Z,100.00
2023-03-18T19:53:42.883Z,100.00
2023-03-18T19:56:43.365Z,100.00
2023-03-18T19:59:45.209Z,100.00
2023-03-18T20:02:46.068Z,100.00
2023-03-18T20:05:49.289Z,100.00
2023-03-18T20:08:59.764Z,100.00
2023-03-18T20:12:06.236Z,100.00
2023-03-18T20:15:11.015Z,100.00
2023-03-18T20:18:13.368Z,100.00
2023-03-18T20:25:03.758Z,100.00
2023-03-18T20:28:41.968Z,100.00
2023-03-18T20:35:19.890Z,100.00
2023-03-18T20:38:40.417Z,100.00
2023-03-18T20:41:50.277Z,100.00
2023-03-18T20:44:59.402Z,100.00
2023-03-18T20:48:08.961Z,100.00
2023-03-18T20:51:13.029Z,100.00
2023-03-18T20:54:20.150Z,100.00
2023-03-18T20:57:36.767Z,100.00
2023-03-18T21:00:49.041Z,100.00
2023-03-18T21:03:54.259Z,100.00
2023-03-18T21:07:04.941Z,100.00
2023-03-18T21:10:14.095Z,100.00
2023-03-18T21:13:25.148Z,100.00
2023-03-18T21:16:28.568Z,100.00
2023-03-18T21:19:39.525Z,100.00
2023-03-18T21:22:55.438Z,100.00
2023-03-18T21:26:11.597Z,100.00
2023-03-18T21:29:34.961Z,100.00
2023-03-18T21:32:44.174Z,100.00
2023-03-18T21:35:46.152Z,100.00
2023-03-18T21:38:50.201Z,100.00
2023-03-18T21:41:52.223Z,100.00
2023-03-18T21:44:53.263Z,100.00
2023-03-18T21:47:54.056Z,100.00
2023-03-18T21:50:56.182Z,100.00
2023-03-18T21:53:57.072Z,100.00
2023-03-18T21:56:58.325Z,100.00
2023-03-18T22:00:01.477Z,100.00
2023-03-18T22:03:06.337Z,100.00
2023-03-18T22:06:08.568Z,100.00
2023-03-18T22:09:13.103Z,100.00
2023-03-18T22:12:14.108Z,100.00
2023-03-18T22:15:24.093Z,100.00
2023-03-18T22:18:25.590Z,100.00
2023-03-18T22:21:52.206Z,100.00
2023-03-18T22:24:55.058Z,100.00
2023-03-18T22:27:55.114Z,100.00
2023-03-18T22:31:03.362Z,100.00
2023-03-18T22:34:04.099Z,100.00
2023-03-18T22:37:04.694Z,100.00
2023-03-18T22:40:05.113Z,100.00
2023-03-18T22:43:07.166Z,100.00
2023-03-18T22:46:08.210Z,100.00
2023-03-18T22:49:14.278Z,100.00
2023-03-18T22:52:15.120Z,100.00
2023-03-18T22:55:15.201Z,100.00
2023-03-18T22:58:15.137Z,100.00
2023-03-18T23:01:17.151Z,100.00
2023-03-18T23:04:19.712Z,100.00
2023-03-18T23:07:41.878Z,100.00
2023-03-18T23:10:45.231Z,100.00
2023-03-18T23:13:51.700Z,100.00
2023-03-18T23:16:53.189Z,100.00
2023-03-18T23:20:00.440Z,100.00
2023-03-18T23:23:01.632Z,100.00
2023-03-18T23:26:04.163Z,100.00
2023-03-18T23:29:05.179Z,100.00
2023-03-18T23:32:08.686Z,100.00
2023-03-18T23:35:09.166Z,100.00
2023-03-18T23:38:12.192Z,100.00
2023-03-18T23:41:13.283Z,100.00
2023-03-18T23:44:14.241Z,100.00
2023-03-18T23:47:18.207Z,100.00
2023-03-18T23:50:21.262Z,100.00
2023-03-18T23:53:23.296Z,100.00
2023-03-18T23:56:23.215Z,100.00
2023-03-18T23:59:24.237Z,100.00
